sensor_id;sensor_type;location;lat;lon;timestamp;P1;durP1;ratioP1;P2;durP2;ratioP2
37047;SDS011;23227;48.780;9.210;2023-03-14T00:01:46;0.77;;;0.55;;
37047;SDS011;23227;48.780;9.210;2023-03-14T00:04:50;1.00;;;0.67;;
37047;SDS011;23227;48.780;9.210;2023-03-14T00:07:56;0.70;;;0.30;;
37047;SDS011;23227;48.780;9.210;2023-03-14T00:11:03;1.17;;;0.50;;
37047;SDS011;23227;48.780;9.210;2023-03-14T00:14:06;0.83;;;0.40;;
37047;SDS011;23227;48.780;9.210;2023-03-14T00:17:10;1.03;;;0.50;;
37047;SDS011;23227;48.780;9.210;2023-03-14T00:20:14;2.57;;;0.80;;
37047;SDS011;23227;48.780;9.210;2023-03-14T00:23:17;1.17;;;0.60;;
37047;SDS011;23227;48.780;9.210;2023-03-14T00:26:20;0.67;;;0.40;;
37047;SDS011;23227;48.780;9.210;2023-03-14T00:29:23;0.32;;;0.32;;
37047;SDS011;23227;48.780;9.210;2023-03-14T00:32:27;0.37;;;0.37;;
37047;SDS011;23227;48.780;9.210;2023-03-14T00:35:30;3.27;;;0.50;;
37047;SDS011;23227;48.780;9.210;2023-03-14T00:38:32;1.47;;;0.40;;
37047;SDS011;23227;48.780;9.210;2023-03-14T00:41:35;2.22;;;0.50;;
37047;SDS011;23227;48.780;9.210;2023-03-14T00:44:38;0.97;;;0.80;;
37047;SDS011;23227;48.780;9.210;2023-03-14T00:47:42;0.70;;;0.53;;
37047;SDS011;23227;48.780;9.210;2023-03-14T00:50:46;0.87;;;0.47;;
37047;SDS011;23227;48.780;9.210;2023-03-14T00:53:49;0.45;;;0.35;;
37047;SDS011;23227;48.780;9.210;2023-03-14T00:56:52;2.13;;;0.43;;
37047;SDS011;23227;48.780;9.210;2023-03-14T00:59:54;1.83;;;0.50;;
37047;SDS011;23227;48.780;9.210;2023-03-14T01:02:59;0.25;;;0.25;;
37047;SDS011;23227;48.780;9.210;2023-03-14T01:06:08;1.63;;;0.50;;
37047;SDS011;23227;48.780;9.210;2023-03-14T01:09:12;0.40;;;0.40;;
37047;SDS011;23227;48.780;9.210;2023-03-14T01:12:14;0.30;;;0.30;;
37047;SDS011;23227;48.780;9.210;2023-03-14T01:15:17;0.97;;;0.37;;
37047;SDS011;23227;48.780;9.210;2023-03-14T01:18:21;2.22;;;0.40;;
37047;SDS011;23227;48.780;9.210;2023-03-14T01:21:24;0.50;;;0.50;;
37047;SDS011;23227;48.780;9.210;2023-03-14T01:24:29;2.07;;;0.40;;
37047;SDS011;23227;48.780;9.210;2023-03-14T01:27:31;0.30;;;0.30;;
37047;SDS011;23227;48.780;9.210;2023-03-14T01:30:34;0.30;;;0.22;;
37047;SDS011;23227;48.780;9.210;2023-03-14T01:33:38;1.83;;;0.43;;
37047;SDS011;23227;48.780;9.210;2023-03-14T01:36:41;0.43;;;0.30;;
37047;SDS011;23227;48.780;9.210;2023-03-14T01:39:44;0.47;;;0.47;;
37047;SDS011;23227;48.780;9.210;2023-03-14T01:42:53;0.80;;;0.60;;
37047;SDS011;23227;48.780;9.210;2023-03-14T01:49:20;1.63;;;0.27;;
37047;SDS011;23227;48.780;9.210;2023-03-14T01:52:25;0.90;;;0.30;;
37047;SDS011;23227;48.780;9.210;2023-03-14T01:55:29;0.67;;;0.60;;
37047;SDS011;23227;48.780;9.210;2023-03-14T01:58:32;0.67;;;0.33;;
37047;SDS011;23227;48.780;9.210;2023-03-14T02:01:35;0.32;;;0.30;;
37047;SDS011;23227;48.780;9.210;2023-03-14T02:04:40;0.30;;;0.30;;
37047;SDS011;23227;48.780;9.210;2023-03-14T02:07:45;0.40;;;0.40;;
37047;SDS011;23227;48.780;9.210;2023-03-14T02:10:50;0.63;;;0.63;;
37047;SDS011;23227;48.780;9.210;2023-03-14T02:13:53;0.83;;;0.30;;
37047;SDS011;23227;48.780;9.210;2023-03-14T02:16:56;0.40;;;0.40;;
37047;SDS011;23227;48.780;9.210;2023-03-14T02:20:07;0.73;;;0.40;;
37047;SDS011;23227;48.780;9.210;2023-03-14T02:23:16;0.30;;;0.20;;
37047;SDS011;23227;48.780;9.210;2023-03-14T02:26:23;0.40;;;0.30;;
37047;SDS011;23227;48.780;9.210;2023-03-14T02:29:30;0.30;;;0.30;;
37047;SDS011;23227;48.780;9.210;2023-03-14T02:32:34;0.50;;;0.23;;
37047;SDS011;23227;48.780;9.210;2023-03-14T02:35:40;0.30;;;0.30;;
37047;SDS011;23227;48.780;9.210;2023-03-14T02:38:46;0.30;;;0.30;;
37047;SDS011;23227;48.780;9.210;2023-03-14T02:41:49;2.93;;;0.30;;
37047;SDS011;23227;48.780;9.210;2023-03-14T02:44:54;0.60;;;0.20;;
37047;SDS011;23227;48.780;9.210;2023-03-14T02:48:04;1.60;;;0.40;;
37047;SDS011;23227;48.780;9.210;2023-03-14T02:51:09;0.73;;;0.40;;
37047;SDS011;23227;48.780;9.210;2023-03-14T02:54:12;0.30;;;0.30;;
37047;SDS011;23227;48.780;9.210;2023-03-14T02:57:15;0.20;;;0.20;;
37047;SDS011;23227;48.780;9.210;2023-03-14T03:00:19;0.40;;;0.30;;
37047;SDS011;23227;48.780;9.210;2023-03-14T03:03:22;0.50;;;0.37;;
37047;SDS011;23227;48.780;9.210;2023-03-14T03:06:25;0.33;;;0.20;;
37047;SDS011;23227;48.780;9.210;2023-03-14T03:09:27;2.07;;;0.30;;
37047;SDS011;23227;48.780;9.210;2023-03-14T03:12:30;2.72;;;0.50;;
37047;SDS011;23227;48.780;9.210;2023-03-14T03:15:34;0.30;;;0.30;;
37047;SDS011;23227;48.780;9.210;2023-03-14T03:18:37;0.70;;;0.33;;
37047;SDS011;23227;48.780;9.210;2023-03-14T03:21:39;0.60;;;0.40;;
37047;SDS011;23227;48.780;9.210;2023-03-14T03:24:42;0.67;;;0.40;;
37047;SDS011;23227;48.780;9.210;2023-03-14T03:27:45;0.22;;;0.22;;
37047;SDS011;23227;48.780;9.210;2023-03-14T03:30:49;0.40;;;0.30;;
37047;SDS011;23227;48.780;9.210;2023-03-14T03:33:52;0.30;;;0.23;;
37047;SDS011;23227;48.780;9.210;2023-03-14T03:36:55;1.63;;;0.40;;
37047;SDS011;23227;48.780;9.210;2023-03-14T03:39:58;0.55;;;0.30;;
37047;SDS011;23227;48.780;9.210;2023-03-14T03:43:01;0.70;;;0.40;;
37047;SDS011;23227;48.780;9.210;2023-03-14T03:46:06;0.73;;;0.30;;
37047;SDS011;23227;48.780;9.210;2023-03-14T03:49:09;2.57;;;0.60;;
37047;SDS011;23227;48.780;9.210;2023-03-14T03:52:12;2.20;;;0.50;;
37047;SDS011;23227;48.780;9.210;2023-03-14T03:55:14;2.30;;;0.50;;
37047;SDS011;23227;48.780;9.210;2023-03-14T03:58:17;2.58;;;0.60;;
37047;SDS011;23227;48.780;9.210;2023-03-14T04:01:21;1.53;;;0.50;;
37047;SDS011;23227;48.780;9.210;2023-03-14T04:04:24;1.37;;;0.50;;
37047;SDS011;23227;48.780;9.210;2023-03-14T04:07:27;1.92;;;0.57;;
37047;SDS011;23227;48.780;9.210;2023-03-14T04:10:29;1.57;;;0.80;;
37047;SDS011;23227;48.780;9.210;2023-03-14T04:13:32;2.58;;;0.70;;
37047;SDS011;23227;48.780;9.210;2023-03-14T04:16:36;2.70;;;0.70;;
37047;SDS011;23227;48.780;9.210;2023-03-14T04:19:38;2.47;;;1.13;;
37047;SDS011;23227;48.780;9.210;2023-03-14T04:22:41;1.42;;;0.43;;
37047;SDS011;23227;48.780;9.210;2023-03-14T04:25:44;3.33;;;0.50;;
37047;SDS011;23227;48.780;9.210;2023-03-14T04:28:47;4.03;;;0.60;;
37047;SDS011;23227;48.780;9.210;2023-03-14T04:31:51;2.73;;;0.60;;
37047;SDS011;23227;48.780;9.210;2023-03-14T04:34:54;3.40;;;0.60;;
37047;SDS011;23227;48.780;9.210;2023-03-14T04:37:56;1.53;;;0.70;;
37047;SDS011;23227;48.780;9.210;2023-03-14T04:40:59;1.38;;;0.47;;
37047;SDS011;23227;48.780;9.210;2023-03-14T04:44:02;4.30;;;0.50;;
37047;SDS011;23227;48.780;9.210;2023-03-14T04:47:06;4.53;;;0.80;;
37047;SDS011;23227;48.780;9.210;2023-03-14T04:50:09;1.87;;;0.50;;
37047;SDS011;23227;48.780;9.210;2023-03-14T04:53:12;4.30;;;0.50;;
37047;SDS011;23227;48.780;9.210;2023-03-14T04:56:15;1.93;;;0.53;;
37047;SDS011;23227;48.780;9.210;2023-03-14T04:59:17;4.27;;;0.70;;
37047;SDS011;23227;48.780;9.210;2023-03-14T05:02:21;2.73;;;0.87;;
37047;SDS011;23227;48.780;9.210;2023-03-14T05:05:24;3.43;;;0.80;;
37047;SDS011;23227;48.780;9.210;2023-03-14T05:08:26;2.10;;;0.60;;
37047;SDS011;23227;48.780;9.210;2023-03-14T05:11:29;5.77;;;0.70;;
37047;SDS011;23227;48.780;9.210;2023-03-14T05:14:31;1.97;;;0.67;;
37047;SDS011;23227;48.780;9.210;2023-03-14T05:17:35;1.93;;;1.00;;
37047;SDS011;23227;48.780;9.210;2023-03-14T05:20:38;0.70;;;0.60;;
37047;SDS011;23227;48.780;9.210;2023-03-14T05:23:40;1.60;;;0.73;;
37047;SDS011;23227;48.780;9.210;2023-03-14T05:26:43;2.35;;;0.60;;
37047;SDS011;23227;48.780;9.210;2023-03-14T05:29:46;2.93;;;0.63;;
37047;SDS011;23227;48.780;9.210;2023-03-14T05:32:50;5.75;;;1.38;;
37047;SDS011;23227;48.780;9.210;2023-03-14T05:35:53;1.90;;;0.80;;
37047;SDS011;23227;48.780;9.210;2023-03-14T05:38:55;0.60;;;0.57;;
37047;SDS011;23227;48.780;9.210;2023-03-14T05:41:58;3.00;;;1.07;;
37047;SDS011;23227;48.780;9.210;2023-03-14T05:45:00;5.67;;;1.30;;
37047;SDS011;23227;48.780;9.210;2023-03-14T05:48:05;3.37;;;0.87;;
37047;SDS011;23227;48.780;9.210;2023-03-14T05:51:07;2.60;;;0.80;;
37047;SDS011;23227;48.780;9.210;2023-03-14T05:54:10;2.53;;;1.33;;
37047;SDS011;23227;48.780;9.210;2023-03-14T05:57:12;3.07;;;0.90;;
37047;SDS011;23227;48.780;9.210;2023-03-14T06:00:16;3.20;;;0.95;;
37047;SDS011;23227;48.780;9.210;2023-03-14T06:03:20;4.68;;;0.90;;
37047;SDS011;23227;48.780;9.210;2023-03-14T06:06:23;1.37;;;0.60;;
37047;SDS011;23227;48.780;9.210;2023-03-14T06:09:26;1.13;;;0.50;;
37047;SDS011;23227;48.780;9.210;2023-03-14T06:12:28;4.43;;;1.53;;
37047;SDS011;23227;48.780;9.210;2023-03-14T06:15:31;2.43;;;1.10;;
37047;SDS011;23227;48.780;9.210;2023-03-14T06:18:36;2.25;;;0.77;;
37047;SDS011;23227;48.780;9.210;2023-03-14T06:21:38;3.70;;;0.50;;
37047;SDS011;23227;48.780;9.210;2023-03-14T06:24:41;3.20;;;1.00;;
37047;SDS011;23227;48.780;9.210;2023-03-14T06:27:43;5.37;;;0.70;;
37047;SDS011;23227;48.780;9.210;2023-03-14T06:30:46;2.17;;;0.70;;
37047;SDS011;23227;48.780;9.210;2023-03-14T06:33:50;2.53;;;0.50;;
37047;SDS011;23227;48.780;9.210;2023-03-14T06:36:52;1.43;;;0.93;;
37047;SDS011;23227;48.780;9.210;2023-03-14T06:39:55;2.53;;;0.70;;
37047;SDS011;23227;48.780;9.210;2023-03-14T06:42:58;2.22;;;0.68;;
37047;SDS011;23227;48.780;9.210;2023-03-14T06:46:00;2.43;;;0.70;;
37047;SDS011;23227;48.780;9.210;2023-03-14T06:49:04;3.87;;;0.83;;
37047;SDS011;23227;48.780;9.210;2023-03-14T06:52:07;2.47;;;0.60;;
37047;SDS011;23227;48.780;9.210;2023-03-14T06:55:09;1.27;;;0.40;;
37047;SDS011;23227;48.780;9.210;2023-03-14T06:58:12;2.73;;;0.80;;
37047;SDS011;23227;48.780;9.210;2023-03-14T07:01:17;2.67;;;0.67;;
37047;SDS011;23227;48.780;9.210;2023-03-14T07:04:25;3.67;;;0.67;;
37047;SDS011;23227;48.780;9.210;2023-03-14T07:07:28;2.83;;;0.50;;
37047;SDS011;23227;48.780;9.210;2023-03-14T07:10:31;6.83;;;0.50;;
37047;SDS011;23227;48.780;9.210;2023-03-14T07:13:33;4.03;;;1.43;;
37047;SDS011;23227;48.780;9.210;2023-03-14T07:16:36;2.60;;;0.97;;
37047;SDS011;23227;48.780;9.210;2023-03-14T07:19:40;2.73;;;0.40;;
37047;SDS011;23227;48.780;9.210;2023-03-14T07:22:42;0.50;;;0.37;;
37047;SDS011;23227;48.780;9.210;2023-03-14T07:25:45;0.47;;;0.30;;
37047;SDS011;23227;48.780;9.210;2023-03-14T07:28:47;2.47;;;0.40;;
37047;SDS011;23227;48.780;9.210;2023-03-14T07:31:50;0.80;;;0.40;;
37047;SDS011;23227;48.780;9.210;2023-03-14T07:34:54;1.17;;;0.40;;
37047;SDS011;23227;48.780;9.210;2023-03-14T07:37:57;0.87;;;0.40;;
37047;SDS011;23227;48.780;9.210;2023-03-14T07:40:59;0.67;;;0.50;;
37047;SDS011;23227;48.780;9.210;2023-03-14T07:44:03;1.17;;;0.47;;
37047;SDS011;23227;48.780;9.210;2023-03-14T07:47:05;0.73;;;0.20;;
37047;SDS011;23227;48.780;9.210;2023-03-14T07:50:10;1.10;;;0.40;;
37047;SDS011;23227;48.780;9.210;2023-03-14T07:53:12;0.70;;;0.37;;
37047;SDS011;23227;48.780;9.210;2023-03-14T07:56:15;4.10;;;0.60;;
37047;SDS011;23227;48.780;9.210;2023-03-14T07:59:17;0.97;;;0.60;;
37047;SDS011;23227;48.780;9.210;2023-03-14T08:02:20;1.00;;;0.50;;
37047;SDS011;23227;48.780;9.210;2023-03-14T08:05:26;0.73;;;0.30;;
37047;SDS011;23227;48.780;9.210;2023-03-14T08:08:29;0.70;;;0.37;;
37047;SDS011;23227;48.780;9.210;2023-03-14T08:11:31;2.40;;;0.40;;
37047;SDS011;23227;48.780;9.210;2023-03-14T08:14:34;4.00;;;0.90;;
37047;SDS011;23227;48.780;9.210;2023-03-14T08:17:36;2.57;;;0.40;;
37047;SDS011;23227;48.780;9.210;2023-03-14T08:20:40;2.40;;;0.47;;
37047;SDS011;23227;48.780;9.210;2023-03-14T08:23:43;0.97;;;0.30;;
37047;SDS011;23227;48.780;9.210;2023-03-14T08:26:45;1.90;;;0.30;;
37047;SDS011;23227;48.780;9.210;2023-03-14T08:29:48;0.73;;;0.50;;
37047;SDS011;23227;48.780;9.210;2023-03-14T08:32:50;1.07;;;0.43;;
37047;SDS011;23227;48.780;9.210;2023-03-14T08:35:55;1.17;;;0.40;;
37047;SDS011;23227;48.780;9.210;2023-03-14T08:38:58;0.60;;;0.20;;
37047;SDS011;23227;48.780;9.210;2023-03-14T08:42:01;1.25;;;0.40;;
37047;SDS011;23227;48.780;9.210;2023-03-14T08:45:04;0.23;;;0.20;;
37047;SDS011;23227;48.780;9.210;2023-03-14T08:48:08;3.93;;;0.40;;
37047;SDS011;23227;48.780;9.210;2023-03-14T08:51:13;1.03;;;0.40;;
37047;SDS011;23227;48.780;9.210;2023-03-14T08:54:16;0.47;;;0.30;;
37047;SDS011;23227;48.780;9.210;2023-03-14T08:57:19;0.10;;;0.10;;
37047;SDS011;23227;48.780;9.210;2023-03-14T09:00:23;0.55;;;0.20;;
37047;SDS011;23227;48.780;9.210;2023-03-14T09:03:25;0.20;;;0.20;;
37047;SDS011;23227;48.780;9.210;2023-03-14T09:06:30;0.80;;;0.30;;
37047;SDS011;23227;48.780;9.210;2023-03-14T09:09:33;0.20;;;0.20;;
37047;SDS011;23227;48.780;9.210;2023-03-14T09:12:35;0.20;;;0.20;;
37047;SDS011;23227;48.780;9.210;2023-03-14T09:15:38;0.20;;;0.20;;
37047;SDS011;23227;48.780;9.210;2023-03-14T09:18:43;1.03;;;0.50;;
37047;SDS011;23227;48.780;9.210;2023-03-14T09:21:47;0.30;;;0.30;;
37047;SDS011;23227;48.780;9.210;2023-03-14T09:24:50;1.73;;;0.50;;
37047;SDS011;23227;48.780;9.210;2023-03-14T09:27:52;1.20;;;0.20;;
37047;SDS011;23227;48.780;9.210;2023-03-14T09:30:55;2.13;;;0.63;;
37047;SDS011;23227;48.780;9.210;2023-03-14T09:33:57;1.67;;;0.40;;
37047;SDS011;23227;48.780;9.210;2023-03-14T09:37:01;2.03;;;0.20;;
37047;SDS011;23227;48.780;9.210;2023-03-14T09:40:04;0.77;;;0.63;;
37047;SDS011;23227;48.780;9.210;2023-03-14T09:43:12;1.50;;;0.50;;
37047;SDS011;23227;48.780;9.210;2023-03-14T09:46:16;1.27;;;0.30;;
37047;SDS011;23227;48.780;9.210;2023-03-14T09:49:20;0.22;;;0.20;;
37047;SDS011;23227;48.780;9.210;2023-03-14T09:52:28;2.77;;;0.50;;
37047;SDS011;23227;48.780;9.210;2023-03-14T09:55:33;1.63;;;0.50;;
37047;SDS011;23227;48.780;9.210;2023-03-14T09:58:37;27.43;;;0.40;;
37047;SDS011;23227;48.780;9.210;2023-03-14T10:01:40;0.38;;;0.38;;
37047;SDS011;23227;48.780;9.210;2023-03-14T10:04:43;0.20;;;0.20;;
37047;SDS011;23227;48.780;9.210;2023-03-14T10:07:48;0.27;;;0.20;;
37047;SDS011;23227;48.780;9.210;2023-03-14T10:10:51;1.50;;;0.30;;
37047;SDS011;23227;48.780;9.210;2023-03-14T10:14:04;1.02;;;0.20;;
37047;SDS011;23227;48.780;9.210;2023-03-14T10:17:09;3.10;;;0.20;;
37047;SDS011;23227;48.780;9.210;2023-03-14T10:20:25;0.47;;;0.30;;
37047;SDS011;23227;48.780;9.210;2023-03-14T10:23:35;0.30;;;0.10;;
37047;SDS011;23227;48.780;9.210;2023-03-14T10:26:38;1.80;;;0.20;;
37047;SDS011;23227;48.780;9.210;2023-03-14T10:29:52;0.27;;;0.27;;
37047;SDS011;23227;48.780;9.210;2023-03-14T10:33:03;0.83;;;0.10;;
37047;SDS011;23227;48.780;9.210;2023-03-14T10:36:17;0.13;;;0.13;;
37047;SDS011;23227;48.780;9.210;2023-03-14T10:39:25;0.20;;;0.20;;
37047;SDS011;23227;48.780;9.210;2023-03-14T10:42:30;0.33;;;0.20;;
37047;SDS011;23227;48.780;9.210;2023-03-14T10:45:36;0.80;;;0.40;;
37047;SDS011;23227;48.780;9.210;2023-03-14T10:48:39;0.20;;;0.20;;
37047;SDS011;23227;48.780;9.210;2023-03-14T10:51:43;1.17;;;0.30;;
37047;SDS011;23227;48.780;9.210;2023-03-14T10:54:52;0.63;;;0.20;;
37047;SDS011;23227;48.780;9.210;2023-03-14T10:57:57;0.20;;;0.20;;
37047;SDS011;23227;48.780;9.210;2023-03-14T11:01:02;0.68;;;0.10;;
37047;SDS011;23227;48.780;9.210;2023-03-14T11:04:17;0.20;;;0.20;;
37047;SDS011;23227;48.780;9.210;2023-03-14T11:07:27;1.43;;;0.20;;
37047;SDS011;23227;48.780;9.210;2023-03-14T11:10:33;1.30;;;0.20;;
37047;SDS011;23227;48.780;9.210;2023-03-14T11:13:39;0.53;;;0.37;;
37047;SDS011;23227;48.780;9.210;2023-03-14T11:16:49;0.37;;;0.30;;
37047;SDS011;23227;48.780;9.210;2023-03-14T11:20:03;0.63;;;0.30;;
37047;SDS011;23227;48.780;9.210;2023-03-14T11:23:12;0.30;;;0.30;;
37047;SDS011;23227;48.780;9.210;2023-03-14T11:26:20;0.97;;;0.20;;
37047;SDS011;23227;48.780;9.210;2023-03-14T11:29:33;0.20;;;0.20;;
37047;SDS011;23227;48.780;9.210;2023-03-14T11:32:42;0.30;;;0.20;;
37047;SDS011;23227;48.780;9.210;2023-03-14T11:35:47;1.07;;;0.30;;
37047;SDS011;23227;48.780;9.210;2023-03-14T11:38:54;0.77;;;0.60;;
37047;SDS011;23227;48.780;9.210;2023-03-14T11:42:00;0.20;;;0.20;;
37047;SDS011;23227;48.780;9.210;2023-03-14T11:45:10;0.20;;;0.20;;
37047;SDS011;23227;48.780;9.210;2023-03-14T11:48:19;0.47;;;0.30;;
37047;SDS011;23227;48.780;9.210;2023-03-14T11:51:28;0.20;;;0.20;;
37047;SDS011;23227;48.780;9.210;2023-03-14T11:54:33;0.77;;;0.40;;
37047;SDS011;23227;48.780;9.210;2023-03-14T11:57:40;0.50;;;0.30;;
37047;SDS011;23227;48.780;9.210;2023-03-14T12:00:43;1.17;;;0.43;;
37047;SDS011;23227;48.780;9.210;2023-03-14T12:03:49;1.17;;;0.60;;
37047;SDS011;23227;48.780;9.210;2023-03-14T12:06:57;0.27;;;0.27;;
37047;SDS011;23227;48.780;9.210;2023-03-14T12:10:04;0.40;;;0.30;;
37047;SDS011;23227;48.780;9.210;2023-03-14T12:13:08;0.80;;;0.43;;
37047;SDS011;23227;48.780;9.210;2023-03-14T12:16:19;0.37;;;0.20;;
37047;SDS011;23227;48.780;9.210;2023-03-14T12:19:30;0.53;;;0.47;;
37047;SDS011;23227;48.780;9.210;2023-03-14T12:22:34;1.40;;;0.60;;
37047;SDS011;23227;48.780;9.210;2023-03-14T12:25:38;1.05;;;0.20;;
37047;SDS011;23227;48.780;9.210;2023-03-14T12:28:43;4.35;;;0.40;;
37047;SDS011;23227;48.780;9.210;2023-03-14T12:31:47;0.30;;;0.30;;
37047;SDS011;23227;48.780;9.210;2023-03-14T12:34:50;0.20;;;0.20;;
37047;SDS011;23227;48.780;9.210;2023-03-14T12:37:53;0.63;;;0.22;;
37047;SDS011;23227;48.780;9.210;2023-03-14T12:40:58;0.30;;;0.28;;
37047;SDS011;23227;48.780;9.210;2023-03-14T12:51:12;0.20;;;0.20;;
37047;SDS011;23227;48.780;9.210;2023-03-14T12:54:19;0.67;;;0.40;;
37047;SDS011;23227;48.780;9.210;2023-03-14T12:57:27;0.67;;;0.30;;
37047;SDS011;23227;48.780;9.210;2023-03-14T13:00:32;0.30;;;0.20;;
37047;SDS011;23227;48.780;9.210;2023-03-14T13:03:37;1.40;;;0.50;;
37047;SDS011;23227;48.780;9.210;2023-03-14T13:06:46;0.80;;;0.30;;
37047;SDS011;23227;48.780;9.210;2023-03-14T13:09:53;0.30;;;0.30;;
37047;SDS011;23227;48.780;9.210;2023-03-14T13:12:57;2.37;;;0.50;;
37047;SDS011;23227;48.780;9.210;2023-03-14T13:16:09;1.37;;;0.50;;
37047;SDS011;23227;48.780;9.210;2023-03-14T13:19:15;1.27;;;0.40;;
37047;SDS011;23227;48.780;9.210;2023-03-14T13:22:22;0.63;;;0.40;;
37047;SDS011;23227;48.780;9.210;2023-03-14T13:25:29;0.93;;;0.43;;
37047;SDS011;23227;48.780;9.210;2023-03-14T13:28:32;3.93;;;1.43;;
37047;SDS011;23227;48.780;9.210;2023-03-14T13:31:38;0.87;;;0.43;;
37047;SDS011;23227;48.780;9.210;2023-03-14T13:34:45;1.63;;;0.40;;
37047;SDS011;23227;48.780;9.210;2023-03-14T13:37:56;0.93;;;0.60;;
37047;SDS011;23227;48.780;9.210;2023-03-14T13:41:11;2.23;;;0.50;;
37047;SDS011;23227;48.780;9.210;2023-03-14T13:44:16;1.00;;;0.35;;
37047;SDS011;23227;48.780;9.210;2023-03-14T13:47:23;1.23;;;0.30;;
37047;SDS011;23227;48.780;9.210;2023-03-14T13:50:26;0.50;;;0.50;;
37047;SDS011;23227;48.780;9.210;2023-03-14T13:53:29;1.20;;;0.50;;
37047;SDS011;23227;48.780;9.210;2023-03-14T13:56:32;0.40;;;0.40;;
37047;SDS011;23227;48.780;9.210;2023-03-14T13:59:35;6.20;;;0.65;;
37047;SDS011;23227;48.780;9.210;2023-03-14T14:02:39;0.30;;;0.20;;
37047;SDS011;23227;48.780;9.210;2023-03-14T14:05:41;1.73;;;0.67;;
37047;SDS011;23227;48.780;9.210;2023-03-14T14:08:46;0.87;;;0.40;;
37047;SDS011;23227;48.780;9.210;2023-03-14T14:11:50;1.60;;;0.47;;
37047;SDS011;23227;48.780;9.210;2023-03-14T14:15:15;2.07;;;1.03;;
37047;SDS011;23227;48.780;9.210;2023-03-14T14:18:22;3.80;;;0.60;;
37047;SDS011;23227;48.780;9.210;2023-03-14T14:21:27;0.73;;;0.20;;
37047;SDS011;23227;48.780;9.210;2023-03-14T14:24:31;2.23;;;0.87;;
37047;SDS011;23227;48.780;9.210;2023-03-14T14:27:35;5.50;;;0.40;;
37047;SDS011;23227;48.780;9.210;2023-03-14T14:30:40;1.30;;;0.50;;
37047;SDS011;23227;48.780;9.210;2023-03-14T14:33:45;1.13;;;0.68;;
37047;SDS011;23227;48.780;9.210;2023-03-14T14:36:48;0.50;;;0.50;;
37047;SDS011;23227;48.780;9.210;2023-03-14T14:39:51;1.42;;;0.40;;
37047;SDS011;23227;48.780;9.210;2023-03-14T14:42:55;1.53;;;0.30;;
37047;SDS011;23227;48.780;9.210;2023-03-14T14:46:05;4.50;;;0.40;;
37047;SDS011;23227;48.780;9.210;2023-03-14T14:49:10;1.90;;;0.30;;
37047;SDS011;23227;48.780;9.210;2023-03-14T14:52:15;0.87;;;0.43;;
37047;SDS011;23227;48.780;9.210;2023-03-14T14:55:19;0.40;;;0.33;;
37047;SDS011;23227;48.780;9.210;2023-03-14T14:58:23;0.57;;;0.20;;
37047;SDS011;23227;48.780;9.210;2023-03-14T15:01:30;1.20;;;0.50;;
37047;SDS011;23227;48.780;9.210;2023-03-14T15:04:36;1.40;;;0.60;;
37047;SDS011;23227;48.780;9.210;2023-03-14T15:07:39;2.83;;;0.77;;
37047;SDS011;23227;48.780;9.210;2023-03-14T15:10:41;0.97;;;0.70;;
37047;SDS011;23227;48.780;9.210;2023-03-14T15:13:44;4.65;;;1.13;;
37047;SDS011;23227;48.780;9.210;2023-03-14T15:16:47;3.17;;;0.50;;
37047;SDS011;23227;48.780;9.210;2023-03-14T15:19:51;1.73;;;0.77;;
37047;SDS011;23227;48.780;9.210;2023-03-14T15:22:53;2.33;;;0.57;;
37047;SDS011;23227;48.780;9.210;2023-03-14T15:25:56;2.33;;;0.90;;
37047;SDS011;23227;48.780;9.210;2023-03-14T15:28:58;1.90;;;0.40;;
37047;SDS011;23227;48.780;9.210;2023-03-14T15:32:01;1.27;;;0.73;;
37047;SDS011;23227;48.780;9.210;2023-03-14T15:35:05;1.75;;;0.55;;
37047;SDS011;23227;48.780;9.210;2023-03-14T15:38:09;1.10;;;0.80;;
37047;SDS011;23227;48.780;9.210;2023-03-14T15:41:14;2.90;;;0.70;;
37047;SDS011;23227;48.780;9.210;2023-03-14T15:47:20;7.60;;;1.10;;
37047;SDS011;23227;48.780;9.210;2023-03-14T15:50:24;0.57;;;0.57;;
37047;SDS011;23227;48.780;9.210;2023-03-14T15:53:27;1.70;;;0.60;;
37047;SDS011;23227;48.780;9.210;2023-03-14T15:56:30;3.27;;;0.90;;
37047;SDS011;23227;48.780;9.210;2023-03-14T15:59:33;0.90;;;0.43;;
37047;SDS011;23227;48.780;9.210;2023-03-14T16:02:36;0.73;;;0.32;;
37047;SDS011;23227;48.780;9.210;2023-03-14T16:05:43;2.00;;;0.40;;
37047;SDS011;23227;48.780;9.210;2023-03-14T16:08:46;1.87;;;0.87;;
37047;SDS011;23227;48.780;9.210;2023-03-14T16:11:49;1.50;;;0.63;;
37047;SDS011;23227;48.780;9.210;2023-03-14T16:14:51;4.30;;;1.00;;
37047;SDS011;23227;48.780;9.210;2023-03-14T16:17:54;2.57;;;0.83;;
37047;SDS011;23227;48.780;9.210;2023-03-14T16:20:59;3.63;;;0.70;;
37047;SDS011;23227;48.780;9.210;2023-03-14T16:24:02;4.37;;;1.20;;
37047;SDS011;23227;48.780;9.210;2023-03-14T16:27:07;1.57;;;0.50;;
37047;SDS011;23227;48.780;9.210;2023-03-14T16:30:10;2.28;;;0.55;;
37047;SDS011;23227;48.780;9.210;2023-03-14T16:33:14;3.53;;;0.70;;
37047;SDS011;23227;48.780;9.210;2023-03-14T16:36:18;4.22;;;0.57;;
37047;SDS011;23227;48.780;9.210;2023-03-14T16:39:21;4.03;;;0.83;;
37047;SDS011;23227;48.780;9.210;2023-03-14T16:42:23;5.20;;;1.00;;
37047;SDS011;23227;48.780;9.210;2023-03-14T16:45:26;1.90;;;0.73;;
37047;SDS011;23227;48.780;9.210;2023-03-14T16:51:33;3.17;;;0.70;;
37047;SDS011;23227;48.780;9.210;2023-03-14T16:54:36;2.97;;;1.23;;
37047;SDS011;23227;48.780;9.210;2023-03-14T16:57:39;6.10;;;0.77;;
37047;SDS011;23227;48.780;9.210;2023-03-14T17:00:43;2.43;;;0.80;;
37047;SDS011;23227;48.780;9.210;2023-03-14T17:03:46;1.90;;;0.47;;
37047;SDS011;23227;48.780;9.210;2023-03-14T17:06:51;1.20;;;0.70;;
37047;SDS011;23227;48.780;9.210;2023-03-14T17:09:54;1.13;;;0.90;;
37047;SDS011;23227;48.780;9.210;2023-03-14T17:12:56;4.03;;;0.60;;
37047;SDS011;23227;48.780;9.210;2023-03-14T17:15:59;2.70;;;1.57;;
37047;SDS011;23227;48.780;9.210;2023-03-14T17:19:02;2.15;;;0.80;;
37047;SDS011;23227;48.780;9.210;2023-03-14T17:22:06;3.27;;;0.80;;
37047;SDS011;23227;48.780;9.210;2023-03-14T17:25:24;2.73;;;0.70;;
37047;SDS011;23227;48.780;9.210;2023-03-14T17:28:26;3.93;;;0.90;;
37047;SDS011;23227;48.780;9.210;2023-03-14T17:31:29;3.65;;;0.80;;
37047;SDS011;23227;48.780;9.210;2023-03-14T17:34:32;6.50;;;1.10;;
37047;SDS011;23227;48.780;9.210;2023-03-14T17:37:36;6.87;;;1.03;;
37047;SDS011;23227;48.780;9.210;2023-03-14T17:40:38;2.90;;;0.90;;
37047;SDS011;23227;48.780;9.210;2023-03-14T17:43:41;2.45;;;1.00;;
37047;SDS011;23227;48.780;9.210;2023-03-14T17:46:44;2.93;;;1.03;;
37047;SDS011;23227;48.780;9.210;2023-03-14T17:49:46;4.53;;;1.17;;
37047;SDS011;23227;48.780;9.210;2023-03-14T17:52:50;5.17;;;1.40;;
37047;SDS011;23227;48.780;9.210;2023-03-14T17:55:53;2.60;;;1.20;;
37047;SDS011;23227;48.780;9.210;2023-03-14T17:58:56;5.20;;;1.60;;
37047;SDS011;23227;48.780;9.210;2023-03-14T18:01:58;3.08;;;0.93;;
37047;SDS011;23227;48.780;9.210;2023-03-14T18:05:01;2.75;;;1.27;;
37047;SDS011;23227;48.780;9.210;2023-03-14T18:08:06;2.60;;;1.35;;
37047;SDS011;23227;48.780;9.210;2023-03-14T18:11:11;9.30;;;1.80;;
37047;SDS011;23227;48.780;9.210;2023-03-14T18:14:13;5.55;;;1.20;;
37047;SDS011;23227;48.780;9.210;2023-03-14T18:17:16;2.03;;;1.23;;
37047;SDS011;23227;48.780;9.210;2023-03-14T18:20:19;3.27;;;1.10;;
37047;SDS011;23227;48.780;9.210;2023-03-14T18:23:23;4.67;;;1.30;;
37047;SDS011;23227;48.780;9.210;2023-03-14T18:26:25;4.90;;;1.47;;
37047;SDS011;23227;48.780;9.210;2023-03-14T18:29:28;1.77;;;0.83;;
37047;SDS011;23227;48.780;9.210;2023-03-14T18:32:31;4.50;;;1.73;;
37047;SDS011;23227;48.780;9.210;2023-03-14T18:35:35;5.90;;;1.10;;
37047;SDS011;23227;48.780;9.210;2023-03-14T18:38:39;6.33;;;1.50;;
37047;SDS011;23227;48.780;9.210;2023-03-14T18:41:43;2.83;;;0.87;;
37047;SDS011;23227;48.780;9.210;2023-03-14T18:44:46;2.30;;;1.00;;
37047;SDS011;23227;48.780;9.210;2023-03-14T18:47:48;5.63;;;1.40;;